Terminal Aerodrome Forecast
Issued by NWS

Current Version | Previous Version | Graphics & Text | Print | Product List | Glossary On
Versions: 1 2 3 4 5 6 7 8 9 10 11 12 13 14 15 16 17 18 19 20 21 22 23 24 25 26 27 28 29 30 31 32 33 34 35 36 37 38 39 40 41 42 43 44 45 46 47 48
000
FTUS41 KRNK 202322
TAFLWB
TAF
KLWB 202322Z 2100/2124 02007KT P6SM -SHRA SCT050 BKN080
     FM210200 11005KT 5SM BR OVC060
     FM210500 11005KT P6SM OVC025
     FM210800 10004KT P6SM OVC008
     FM211200 10004KT P6SM OVC030
     FM211600 15006KT P6SM -SHRA OVC020
     FM211900 16006KT 3SM SHRA OVC015=

USA.gov is the U.S. government's official web portal to all federal, state and local government web resources and services.